Time;durP1;ratioP1;P1;durP2;ratioP2;P2;SDS_P1;SDS_P2;PMS_P1;PMS_P2;Temp;Humidity;BMP_temperature;BMP_pressure;BME280_temperature;BME280_humidity;BME280_pressure;Samples;Min_cycle;Max_cycle;Signal;HPM_P1;HPM_P2
2023/04/14 00:00:25;;;;;;;6.07;4.20;;;7.10;99.90;;;;;;5009648;28;20176;-67
2023/04/14 00:02:51;;;;;;;5.93;4.33;;;7.10;99.90;;;;;;5017238;28;20199;-67
2023/04/14 00:05:16;;;;;;;6.77;4.40;;;7.10;99.90;;;;;;5011383;28;20429;-66
2023/04/14 00:07:42;;;;;;;6.20;4.37;;;7.00;99.90;;;;;;5011099;28;20187;-67
2023/04/14 00:10:08;;;;;;;8.13;4.00;;;6.90;99.90;;;;;;5007721;28;20183;-66
2023/04/14 00:12:33;;;;;;;6.87;4.10;;;7.00;99.90;;;;;;5003907;28;20207;-67
2023/04/14 00:14:59;;;;;;;4.57;3.60;;;6.90;99.90;;;;;;5012108;28;20454;-67
2023/04/14 00:17:24;;;;;;;4.43;3.93;;;6.90;99.90;;;;;;5010046;28;20195;-67
2023/04/14 00:19:50;;;;;;;4.17;3.67;;;6.90;99.90;;;;;;5009637;28;20556;-67
2023/04/14 00:22:15;;;;;;;6.70;4.00;;;6.80;99.90;;;;;;5012750;28;20206;-67
2023/04/14 00:24:42;;;;;;;4.43;3.90;;;6.80;99.90;;;;;;5010403;28;20269;-67
2023/04/14 00:27:11;;;;;;;4.00;2.93;;;6.70;99.90;;;;;;5011505;28;20195;-67
2023/04/14 00:29:39;;;;;;;5.93;3.57;;;6.60;99.90;;;;;;5011800;28;20965;-67
2023/04/14 00:32:05;;;;;;;5.80;3.93;;;6.60;99.90;;;;;;5007710;28;20823;-67
2023/04/14 00:34:31;;;;;;;6.43;3.73;;;6.60;99.90;;;;;;5008161;28;20447;-67
2023/04/14 00:36:57;;;;;;;4.07;3.07;;;6.60;99.90;;;;;;5009122;28;20704;-67
2023/04/14 00:39:22;;;;;;;6.07;3.97;;;6.50;99.90;;;;;;5011645;28;20433;-67
2023/04/14 00:41:48;;;;;;;5.93;3.60;;;6.50;99.90;;;;;;5011342;28;20225;-66
2023/04/14 00:44:13;;;;;;;5.67;3.43;;;6.40;99.90;;;;;;5011236;28;20573;-66
2023/04/14 00:46:42;;;;;;;12.33;4.63;;;6.30;99.90;;;;;;5010641;28;20183;-67
2023/04/14 00:49:08;;;;;;;6.93;3.63;;;6.30;99.90;;;;;;5007735;28;20569;-66
2023/04/14 00:51:35;;;;;;;9.10;3.40;;;6.30;99.90;;;;;;5009448;28;20484;-67
2023/04/14 00:54:04;;;;;;;4.50;3.43;;;6.10;99.90;;;;;;5006463;28;20488;-67
2023/04/14 00:56:30;;;;;;;3.30;3.00;;;6.10;99.90;;;;;;5008997;28;21322;-66
2023/04/14 00:59:00;;;;;;;5.83;3.30;;;6.10;99.90;;;;;;5008706;28;20479;-66
2023/04/14 01:01:27;;;;;;;6.57;2.73;;;6.10;99.90;;;;;;5010602;28;20462;-65
2023/04/14 01:03:53;;;;;;;6.83;3.43;;;6.10;99.90;;;;;;5008984;28;20496;-66
2023/04/14 01:06:19;;;;;;;7.17;3.00;;;6.10;99.90;;;;;;5004857;28;20456;-66
2023/04/14 01:08:44;;;;;;;12.03;4.37;;;6.10;99.90;;;;;;5003818;28;20445;-66
2023/04/14 01:11:35;;;;;;;19.70;3.70;;;6.20;99.90;;;;;;5004229;28;20206;-66
2023/04/14 01:14:08;;;;;;;6.20;2.90;;;6.20;99.90;;;;;;5002844;28;20190;-66
2023/04/14 01:16:37;;;;;;;6.77;3.13;;;6.20;99.90;;;;;;5003744;28;20441;-66
2023/04/14 01:19:06;;;;;;;8.27;3.13;;;6.20;99.90;;;;;;5004117;28;20508;-66
2023/04/14 01:21:36;;;;;;;6.83;2.90;;;6.20;99.90;;;;;;5003872;28;20461;-66
2023/04/14 01:24:13;;;;;;;4.67;2.90;;;6.20;99.90;;;;;;5003630;28;20441;-66
2023/04/14 01:26:41;;;;;;;4.10;2.87;;;6.10;99.90;;;;;;5003786;28;20868;-66
2023/04/14 01:29:32;;;;;;;4.70;2.43;;;6.10;99.90;;;;;;5005028;28;20445;-65
2023/04/14 01:32:09;;;;;;;6.93;3.20;;;6.10;99.90;;;;;;5003920;28;20469;-66
2023/04/14 01:34:44;;;;;;;4.40;3.03;;;6.10;99.90;;;;;;5000996;28;20951;-66
2023/04/14 01:37:25;;;;;;;6.10;2.97;;;6.00;99.90;;;;;;5009088;28;20455;-66
2023/04/14 01:39:54;;;;;;;5.73;2.40;;;6.00;99.90;;;;;;5009747;28;20949;-66
2023/04/14 01:42:23;;;;;;;5.63;3.27;;;5.90;99.90;;;;;;5007771;28;20481;-66
2023/04/14 01:44:55;;;;;;;4.10;2.43;;;5.80;99.90;;;;;;5008523;28;20441;-65
2023/04/14 01:47:23;;;;;;;5.17;2.57;;;5.80;99.90;;;;;;5009439;28;20991;-67
2023/04/14 01:49:52;;;;;;;4.80;2.53;;;5.70;99.90;;;;;;5009772;28;20808;-66
2023/04/14 01:52:18;;;;;;;5.43;2.77;;;5.70;99.90;;;;;;5008477;28;20484;-66
2023/04/14 01:54:47;;;;;;;6.80;3.07;;;5.60;99.90;;;;;;5007837;28;20443;-66
2023/04/14 01:57:18;;;;;;;10.53;2.70;;;5.60;99.90;;;;;;5008033;28;20531;-65
2023/04/14 01:59:46;;;;;;;5.20;2.77;;;5.50;99.90;;;;;;5009742;28;20437;-66
2023/04/14 02:02:14;;;;;;;3.27;1.93;;;5.50;99.90;;;;;;5007227;28;20477;-66
2023/04/14 02:04:41;;;;;;;8.83;3.40;;;5.50;99.90;;;;;;5009004;28;20802;-66
2023/04/14 02:07:10;;;;;;;5.60;3.00;;;5.50;99.90;;;;;;5008430;28;20437;-66
2023/04/14 02:09:38;;;;;;;7.23;2.27;;;5.40;99.90;;;;;;4996844;28;20444;-66
2023/04/14 02:12:06;;;;;;;6.70;2.90;;;5.40;99.90;;;;;;5008778;28;20505;-66
2023/04/14 02:14:33;;;;;;;6.20;2.90;;;5.40;99.90;;;;;;5005590;28;20466;-66
2023/04/14 02:17:01;;;;;;;4.40;2.00;;;5.40;99.90;;;;;;4997526;28;20449;-66
2023/04/14 02:19:28;;;;;;;6.70;2.63;;;5.30;99.90;;;;;;5009443;28;20441;-67
2023/04/14 02:21:55;;;;;;;9.07;3.00;;;5.30;99.90;;;;;;5009709;28;20457;-66
2023/04/14 02:24:22;;;;;;;6.07;3.07;;;5.20;99.90;;;;;;5007279;28;20452;-66
2023/04/14 02:26:54;;;;;;;8.20;3.53;;;5.10;99.90;;;;;;5008119;28;20476;-66
2023/04/14 02:29:22;;;;;;;7.90;2.80;;;5.00;99.90;;;;;;4994600;28;20446;-66
2023/04/14 02:32:01;;;;;;;8.60;2.80;;;5.00;99.90;;;;;;5003208;28;20571;-67
2023/04/14 02:34:30;;;;;;;4.53;2.60;;;4.90;99.90;;;;;;5003912;28;20509;-66
2023/04/14 02:36:59;;;;;;;11.33;2.73;;;4.90;99.90;;;;;;5001337;28;20467;-67
2023/04/14 02:39:42;;;;;;;6.63;3.33;;;4.90;99.90;;;;;;5002367;28;20441;-66
2023/04/14 02:42:13;;;;;;;6.33;2.70;;;4.80;99.90;;;;;;5003671;28;20481;-66
2023/04/14 02:44:50;;;;;;;7.63;2.97;;;4.80;99.90;;;;;;5006409;28;20978;-66
2023/04/14 02:47:24;;;;;;;9.13;2.70;;;4.80;99.90;;;;;;5002844;28;20583;-66
2023/04/14 02:49:52;;;;;;;4.13;2.67;;;4.80;99.90;;;;;;5002175;28;20445;-66
2023/04/14 02:52:20;;;;;;;6.43;3.37;;;4.80;99.90;;;;;;5004042;28;20564;-65
2023/04/14 02:54:47;;;;;;;9.03;3.90;;;4.80;99.90;;;;;;5012230;28;20430;-66
2023/04/14 02:57:14;;;;;;;6.17;3.97;;;4.80;99.90;;;;;;5002257;28;20442;-65
2023/04/14 02:59:41;;;;;;;5.73;3.30;;;4.80;99.90;;;;;;5007579;28;20430;-66
2023/04/14 03:02:09;;;;;;;6.47;3.90;;;4.80;99.90;;;;;;5008752;28;20465;-65
2023/04/14 03:04:42;;;;;;;5.57;2.50;;;4.70;99.90;;;;;;5008502;28;20449;-65
2023/04/14 03:07:10;;;;;;;6.30;2.60;;;4.70;99.90;;;;;;5002958;28;20484;-66
2023/04/14 03:09:36;;;;;;;9.20;2.40;;;4.70;99.90;;;;;;5004470;28;20441;-66
2023/04/14 03:12:03;;;;;;;6.83;2.30;;;4.70;99.90;;;;;;5009333;28;20473;-66
2023/04/14 03:14:30;;;;;;;3.97;2.33;;;4.60;99.90;;;;;;5006100;28;20439;-66
2023/04/14 03:16:56;;;;;;;5.73;3.00;;;4.60;99.90;;;;;;5007217;28;20441;-65
2023/04/14 03:19:22;;;;;;;7.27;2.70;;;4.60;99.90;;;;;;5007909;28;20445;-66
2023/04/14 03:21:54;;;;;;;5.10;2.53;;;4.60;99.90;;;;;;5006751;28;20468;-66
2023/04/14 03:24:23;;;;;;;12.23;3.33;;;4.60;99.90;;;;;;5002058;28;20473;-66
2023/04/14 03:26:56;;;;;;;5.37;2.50;;;4.50;99.90;;;;;;5007910;28;20452;-65
2023/04/14 03:29:25;;;;;;;5.63;3.10;;;4.50;99.90;;;;;;5000300;28;20445;-66
2023/04/14 03:31:54;;;;;;;4.83;2.60;;;4.50;99.90;;;;;;5010955;28;20520;-66
2023/04/14 03:34:21;;;;;;;3.80;3.10;;;4.50;99.90;;;;;;5009506;28;20445;-66
2023/04/14 03:36:48;;;;;;;7.40;3.17;;;4.40;99.90;;;;;;5008347;28;20437;-68
2023/04/14 03:39:16;;;;;;;3.63;3.20;;;4.40;99.90;;;;;;5008172;28;20450;-68
2023/04/14 03:41:47;;;;;;;3.33;2.57;;;4.40;99.90;;;;;;5012204;28;20857;-69
2023/04/14 03:44:15;;;;;;;7.10;3.00;;;4.40;99.90;;;;;;5009179;28;20856;-69
2023/04/14 03:46:41;;;;;;;4.50;2.70;;;4.40;99.90;;;;;;5013368;28;20517;-69
2023/04/14 03:49:10;;;;;;;4.83;2.70;;;4.40;99.90;;;;;;5004701;28;20446;-69
2023/04/14 03:51:38;;;;;;;4.67;2.77;;;4.40;99.90;;;;;;5012584;28;20771;-67
2023/04/14 03:54:05;;;;;;;5.43;2.77;;;4.30;99.90;;;;;;5010365;28;20808;-67
2023/04/14 03:56:32;;;;;;;6.30;2.67;;;4.30;99.90;;;;;;5011426;28;20445;-67
2023/04/14 03:59:00;;;;;;;6.20;2.73;;;4.30;99.90;;;;;;5011288;28;20441;-66
2023/04/14 04:01:26;;;;;;;9.67;3.00;;;4.10;99.90;;;;;;5009408;28;20464;-67
2023/04/14 04:03:54;;;;;;;6.97;3.03;;;4.20;99.90;;;;;;5011448;28;20438;-66
2023/04/14 04:06:20;;;;;;;6.17;3.57;;;4.20;99.90;;;;;;5012466;28;20441;-67
2023/04/14 04:08:48;;;;;;;5.40;2.40;;;4.10;99.90;;;;;;5007895;28;20442;-67
2023/04/14 04:11:17;;;;;;;6.00;3.13;;;4.10;99.90;;;;;;5009885;28;20484;-66
2023/04/14 04:13:45;;;;;;;16.53;3.13;;;4.10;99.90;;;;;;5007945;28;20441;-67
2023/04/14 04:16:12;;;;;;;6.43;3.73;;;4.10;99.90;;;;;;5011663;28;20532;-67
2023/04/14 04:18:39;;;;;;;9.40;3.00;;;4.10;99.90;;;;;;5006151;28;20442;-67
2023/04/14 04:21:06;;;;;;;13.30;5.30;;;4.10;99.90;;;;;;5008564;28;20504;-67
2023/04/14 04:23:34;;;;;;;10.87;3.80;;;4.10;99.90;;;;;;5010686;28;20462;-67
2023/04/14 04:25:59;;;;;;;7.80;3.30;;;4.00;99.90;;;;;;5010540;28;20446;-67
2023/04/14 04:28:26;;;;;;;9.03;3.53;;;4.00;99.90;;;;;;5009991;28;20444;-67
2023/04/14 04:30:53;;;;;;;4.47;2.63;;;3.90;99.90;;;;;;5007779;28;20207;-67
2023/04/14 04:33:20;;;;;;;9.33;2.87;;;3.90;99.90;;;;;;5006018;28;20480;-67
2023/04/14 04:35:46;;;;;;;6.43;2.90;;;3.90;99.90;;;;;;5004233;28;20492;-67
2023/04/14 04:38:12;;;;;;;8.03;3.53;;;3.90;99.90;;;;;;4985698;28;20962;-67
2023/04/14 04:40:37;;;;;;;4.13;2.63;;;3.90;99.90;;;;;;5002600;28;20434;-67
2023/04/14 04:43:04;;;;;;;4.70;2.70;;;3.90;99.90;;;;;;5005818;28;20210;-67
2023/04/14 04:45:57;;;;;;;6.10;2.80;;;3.80;99.90;;;;;;5006248;28;20245;-67
2023/04/14 04:48:23;;;;;;;5.23;4.27;;;3.90;99.90;;;;;;5001999;28;21021;-67
2023/04/14 04:50:48;;;;;;;6.80;3.07;;;4.00;99.90;;;;;;5005472;28;20588;-68
2023/04/14 04:53:14;;;;;;;4.90;2.50;;;3.90;99.90;;;;;;5005303;28;20209;-67
2023/04/14 04:55:40;;;;;;;6.43;2.90;;;3.90;99.90;;;;;;5004681;28;20179;-67
2023/04/14 04:58:07;;;;;;;12.00;3.70;;;4.00;99.90;;;;;;5004618;28;20187;-67
2023/04/14 05:00:32;;;;;;;5.80;3.27;;;4.00;99.90;;;;;;5003036;28;20452;-67
2023/04/14 05:02:58;;;;;;;8.80;3.07;;;4.10;99.90;;;;;;5003624;28;20429;-67
2023/04/14 05:05:23;;;;;;;3.37;1.90;;;4.10;99.90;;;;;;5005314;28;20189;-67
2023/04/14 05:07:49;;;;;;;10.80;3.17;;;4.10;99.90;;;;;;5006129;28;20190;-67
2023/04/14 05:10:14;;;;;;;11.67;2.97;;;4.20;99.90;;;;;;5001286;28;20232;-67
2023/04/14 05:12:40;;;;;;;3.60;2.40;;;4.20;99.90;;;;;;5003640;28;20217;-67
2023/04/14 05:15:07;;;;;;;6.23;2.60;;;4.20;99.90;;;;;;5004908;28;20179;-67
2023/04/14 05:17:33;;;;;;;8.83;3.67;;;4.30;99.90;;;;;;5001858;28;20859;-67
2023/04/14 05:19:58;;;;;;;6.27;3.43;;;4.30;99.90;;;;;;5001384;28;20521;-68
2023/04/14 05:22:24;;;;;;;5.90;3.63;;;4.40;99.90;;;;;;5003741;28;20257;-68
2023/04/14 05:24:50;;;;;;;7.83;4.03;;;4.60;99.90;;;;;;5004338;28;20309;-67
2023/04/14 05:27:15;;;;;;;6.10;3.90;;;4.70;99.90;;;;;;5006353;28;20238;-67
2023/04/14 05:29:41;;;;;;;10.03;4.17;;;4.80;99.90;;;;;;5001978;28;20861;-67
2023/04/14 05:32:07;;;;;;;6.20;4.30;;;4.90;99.90;;;;;;5002666;28;20290;-67
2023/04/14 05:34:33;;;;;;;8.00;4.73;;;5.10;99.90;;;;;;5009377;28;20512;-67
2023/04/14 05:36:58;;;;;;;15.53;5.77;;;5.30;99.90;;;;;;5009925;28;20542;-67
2023/04/14 05:39:24;;;;;;;8.73;4.83;;;5.40;99.90;;;;;;5009550;28;20238;-68
2023/04/14 05:41:50;;;;;;;7.07;4.20;;;5.60;99.90;;;;;;5001395;28;20688;-67
2023/04/14 05:44:15;;;;;;;9.00;5.70;;;5.70;99.90;;;;;;5008888;28;20179;-67
2023/04/14 05:46:41;;;;;;;8.90;4.13;;;5.90;99.90;;;;;;5009928;28;20274;-67
2023/04/14 05:49:06;;;;;;;8.73;3.73;;;6.10;99.90;;;;;;5008319;28;20535;-67
2023/04/14 05:51:32;;;;;;;11.27;4.13;;;6.20;99.90;;;;;;5007233;28;20203;-67
2023/04/14 05:53:57;;;;;;;7.60;3.87;;;6.40;99.90;;;;;;5008756;28;20189;-67
2023/04/14 05:56:22;;;;;;;4.13;3.73;;;6.60;99.90;;;;;;5008846;28;20254;-67
2023/04/14 05:58:50;;;;;;;14.13;4.30;;;6.80;99.90;;;;;;5010394;28;20550;-68
2023/04/14 06:01:16;;;;;;;6.37;3.13;;;7.00;99.90;;;;;;5011063;28;20195;-68
2023/04/14 06:03:41;;;;;;;4.23;3.17;;;7.20;99.90;;;;;;5008832;28;20436;-67
2023/04/14 06:06:07;;;;;;;6.50;3.90;;;7.40;99.90;;;;;;5008623;28;20235;-67
2023/04/14 06:08:33;;;;;;;6.83;4.07;;;7.60;99.90;;;;;;5010335;28;20189;-67
2023/04/14 06:10:58;;;;;;;7.17;4.40;;;7.90;99.90;;;;;;5011114;28;20819;-67
2023/04/14 06:13:24;;;;;;;6.60;3.30;;;8.00;99.90;;;;;;5008735;28;20214;-68
2023/04/14 06:15:52;;;;;;;5.77;3.57;;;8.20;99.90;;;;;;5002030;28;20187;-68
2023/04/14 06:18:17;;;;;;;7.43;2.60;;;8.30;99.90;;;;;;5001936;28;20313;-68
2023/04/14 06:20:44;;;;;;;3.50;3.20;;;8.50;99.90;;;;;;5002860;28;20444;-68
2023/04/14 06:23:09;;;;;;;5.53;2.90;;;8.60;99.90;;;;;;5001698;28;20206;-68
2023/04/14 06:25:35;;;;;;;2.90;2.17;;;8.80;99.90;;;;;;5003480;28;20944;-68
2023/04/14 06:28:03;;;;;;;4.73;2.40;;;9.00;99.90;;;;;;5003621;28;20570;-68
2023/04/14 06:30:31;;;;;;;7.60;2.60;;;9.20;99.90;;;;;;5007483;28;20190;-68
2023/04/14 06:32:57;;;;;;;5.47;1.70;;;9.30;99.90;;;;;;5009949;28;20456;-68
2023/04/14 06:35:22;;;;;;;5.50;1.70;;;9.50;99.90;;;;;;5009704;28;20442;-68
2023/04/14 06:37:49;;;;;;;10.17;2.33;;;9.40;99.90;;;;;;5008682;28;20989;-70
2023/04/14 06:40:15;;;;;;;7.50;2.57;;;9.20;99.90;;;;;;5006986;28;20183;-68
2023/04/14 06:42:40;;;;;;;7.40;1.97;;;9.10;99.90;;;;;;5008697;28;20472;-69
2023/04/14 06:45:06;;;;;;;4.47;1.73;;;9.30;99.90;;;;;;5011507;28;20202;-68
2023/04/14 06:47:32;;;;;;;5.90;2.07;;;9.50;99.90;;;;;;5011534;28;20568;-69
2023/04/14 06:49:58;;;;;;;5.43;1.90;;;9.70;99.90;;;;;;5009980;28;20464;-69
2023/04/14 06:52:24;;;;;;;3.77;1.70;;;9.90;99.90;;;;;;5009930;28;20465;-68
2023/04/14 06:54:50;;;;;;;3.80;2.13;;;10.20;99.90;;;;;;5006799;28;20642;-69
2023/04/14 06:57:15;;;;;;;3.80;1.73;;;10.30;99.90;;;;;;5010598;28;20175;-69
2023/04/14 06:59:41;;;;;;;3.03;2.33;;;10.30;99.90;;;;;;5010289;28;20205;-69
2023/04/14 07:02:06;;;;;;;7.40;2.20;;;10.50;99.90;;;;;;5009440;28;20623;-69
2023/04/14 07:04:34;;;;;;;2.97;1.70;;;10.80;99.90;;;;;;5012873;28;20184;-69
2023/04/14 07:07:00;;;;;;;16.27;7.93;;;11.10;99.90;;;;;;5010391;28;20270;-69
2023/04/14 07:09:26;;;;;;;7.83;2.83;;;11.30;99.90;;;;;;5013123;28;20518;-69
2023/04/14 07:11:52;;;;;;;4.77;1.43;;;11.70;99.90;;;;;;5011387;28;20567;-69
2023/04/14 07:14:17;;;;;;;4.00;1.50;;;11.80;99.90;;;;;;5014464;28;20218;-69
2023/04/14 07:16:43;;;;;;;3.80;1.83;;;11.80;99.90;;;;;;5012495;28;20433;-69
2023/04/14 07:19:09;;;;;;;7.50;2.13;;;12.00;99.90;;;;;;5013615;28;20183;-69
2023/04/14 07:21:36;;;;;;;1.70;1.50;;;12.00;99.90;;;;;;5013288;28;20194;-68
2023/04/14 07:24:02;;;;;;;6.20;1.93;;;12.10;99.90;;;;;;5002953;28;20190;-69
2023/04/14 07:26:28;;;;;;;3.60;1.50;;;12.00;99.90;;;;;;5012684;28;20476;-69
2023/04/14 07:28:54;;;;;;;2.63;1.63;;;12.10;99.90;;;;;;5013582;28;20469;-69
2023/04/14 07:31:20;;;;;;;2.43;1.67;;;12.30;99.90;;;;;;5009293;28;20206;-69
2023/04/14 07:33:45;;;;;;;2.43;1.27;;;12.40;99.90;;;;;;5009754;28;20930;-69
2023/04/14 07:36:11;;;;;;;4.93;1.20;;;12.50;99.90;;;;;;5014549;28;20262;-69
2023/04/14 07:38:37;;;;;;;1.97;1.40;;;12.50;99.90;;;;;;4997179;28;20171;-69
2023/04/14 07:41:04;;;;;;;5.87;1.70;;;12.70;99.90;;;;;;5014076;28;20722;-69
2023/04/14 07:43:36;;;;;;;4.40;1.53;;;12.90;99.90;;;;;;5014736;28;20183;-69
2023/04/14 07:46:03;;;;;;;2.47;1.70;;;13.20;99.90;;;;;;5013685;28;20762;-69
2023/04/14 07:48:30;;;;;;;5.03;1.90;;;13.60;99.90;;;;;;4993145;28;20453;-69
2023/04/14 07:50:57;;;;;;;2.53;1.63;;;13.50;99.90;;;;;;5013094;28;20465;-69
2023/04/14 07:53:22;;;;;;;3.17;1.80;;;13.50;99.90;;;;;;5011334;28;20500;-69
2023/04/14 07:55:48;;;;;;;4.10;1.60;;;13.80;99.90;;;;;;5002652;28;20466;-69
2023/04/14 07:58:14;;;;;;;3.57;2.07;;;14.10;99.90;;;;;;5013637;28;20178;-70
2023/04/14 08:00:40;;;;;;;3.70;1.53;;;14.10;99.90;;;;;;5013645;28;20266;-70
2023/04/14 08:03:06;;;;;;;4.47;1.90;;;14.10;99.90;;;;;;5013900;28;20437;-70
2023/04/14 08:05:32;;;;;;;2.70;1.40;;;14.20;99.90;;;;;;5011881;28;20681;-70
2023/04/14 08:07:57;;;;;;;3.27;1.70;;;14.40;98.40;;;;;;5013353;28;20444;-70
2023/04/14 08:10:23;;;;;;;5.70;3.20;;;14.40;99.10;;;;;;5004692;28;20233;-69
2023/04/14 08:12:49;;;;;;;4.27;2.60;;;14.60;99.90;;;;;;5010449;28;20206;-69
2023/04/14 08:15:15;;;;;;;3.67;2.80;;;14.60;99.90;;;;;;5013272;28;20436;-69
2023/04/14 08:17:40;;;;;;;8.43;2.20;;;14.90;99.90;;;;;;5013024;28;20171;-69
2023/04/14 08:20:06;;;;;;;9.37;3.17;;;15.10;99.00;;;;;;5011478;28;20258;-69
2023/04/14 08:22:32;;;;;;;4.17;1.80;;;15.00;99.00;;;;;;5013108;28;20199;-69
2023/04/14 08:24:57;;;;;;;3.00;1.80;;;15.20;98.10;;;;;;5012447;28;20550;-70
2023/04/14 08:27:23;;;;;;;6.73;2.40;;;15.40;96.50;;;;;;5009818;28;20175;-69
2023/04/14 08:29:50;;;;;;;4.20;1.83;;;15.60;97.60;;;;;;5003695;28;20175;-69
2023/04/14 08:32:16;;;;;;;4.87;1.80;;;15.90;94.40;;;;;;5012346;28;20207;-69
2023/04/14 08:34:41;;;;;;;3.07;1.27;;;16.10;93.30;;;;;;5012004;28;21073;-69
2023/04/14 08:37:07;;;;;;;3.20;2.13;;;16.30;90.80;;;;;;5012709;28;20182;-69
2023/04/14 08:39:32;;;;;;;4.83;2.23;;;16.30;91.40;;;;;;5009636;28;20179;-69
2023/04/14 08:41:58;;;;;;;3.47;1.73;;;16.20;90.10;;;;;;5010125;28;20214;-69
2023/04/14 08:44:23;;;;;;;5.97;2.63;;;16.10;90.90;;;;;;5012600;28;20219;-69
2023/04/14 08:46:54;;;;;;;3.23;2.23;;;15.90;89.60;;;;;;5009962;28;20183;-69
2023/04/14 08:49:43;;;;;;;3.90;2.00;;;16.00;88.60;;;;;;5000271;28;20261;-69
2023/04/14 08:52:12;;;;;;;3.47;2.40;;;16.30;89.80;;;;;;5011991;28;20634;-69
2023/04/14 08:54:39;;;;;;;4.93;2.07;;;16.50;90.30;;;;;;5011612;28;20882;-69
2023/04/14 08:57:07;;;;;;;4.00;2.40;;;16.90;86.50;;;;;;5012538;28;20810;-69
2023/04/14 08:59:33;;;;;;;6.90;2.47;;;17.40;84.30;;;;;;5011409;28;20433;-69
2023/04/14 09:01:59;;;;;;;3.00;2.30;;;17.20;81.90;;;;;;5008411;28;20989;-68
2023/04/14 09:04:27;;;;;;;5.50;1.80;;;16.70;82.20;;;;;;5009848;28;20535;-69
2023/04/14 09:06:55;;;;;;;5.53;3.60;;;16.00;84.60;;;;;;5010396;28;22043;-69
2023/04/14 09:09:22;;;;;;;6.10;2.67;;;15.40;87.00;;;;;;5004798;28;20437;-69
2023/04/14 09:11:48;;;;;;;4.93;2.00;;;14.80;89.00;;;;;;5011432;28;20541;-69
2023/04/14 09:14:14;;;;;;;5.30;3.10;;;14.60;89.20;;;;;;5008928;28;20522;-69
2023/04/14 09:16:40;;;;;;;3.73;2.37;;;14.50;91.20;;;;;;5006236;28;20434;-68
2023/04/14 09:19:06;;;;;;;4.50;2.07;;;14.40;90.00;;;;;;5010460;28;20652;-69
2023/04/14 09:21:32;;;;;;;6.73;2.53;;;14.30;90.80;;;;;;5012864;28;20534;-69
2023/04/14 09:23:58;;;;;;;6.13;1.90;;;14.40;89.70;;;;;;5011823;28;20825;-69
2023/04/14 09:26:26;;;;;;;3.27;1.90;;;15.10;90.70;;;;;;5001813;28;20440;-69
2023/04/14 09:28:51;;;;;;;3.10;2.23;;;16.50;84.50;;;;;;5010291;28;20265;-69
2023/04/14 09:31:18;;;;;;;5.10;2.10;;;18.00;77.00;;;;;;5007220;28;20540;-69
2023/04/14 09:33:48;;;;;;;4.57;2.07;;;19.20;71.60;;;;;;5008674;28;20211;-69
2023/04/14 09:36:25;;;;;;;6.93;2.20;;;19.50;67.40;;;;;;5011098;28;20434;-69
2023/04/14 09:38:51;;;;;;;5.13;2.23;;;19.30;62.70;;;;;;5006292;28;20445;-69
2023/04/14 09:41:18;;;;;;;9.67;3.70;;;19.20;63.40;;;;;;5026445;23;20859;-66
2023/04/14 09:43:44;;;;;;;3.80;3.30;;;19.60;62.00;;;;;;4990198;28;20191;-68
2023/04/14 09:46:10;;;;;;;3.87;2.20;;;20.10;57.90;;;;;;4988783;28;20442;-67
2023/04/14 09:48:58;;;;;;;4.17;2.07;;;20.10;55.10;;;;;;4988183;28;20493;-68
2023/04/14 09:51:28;;;;;;;2.87;2.00;;;20.30;55.80;;;;;;4989730;28;20242;-68
2023/04/14 09:53:54;;;;;;;6.27;2.37;;;21.70;54.10;;;;;;4990519;28;21035;-69
2023/04/14 09:56:25;;;;;;;5.27;2.00;;;23.00;52.20;;;;;;4983980;28;20886;-71
2023/04/14 09:58:55;;;;;;;6.00;3.43;;;24.00;48.70;;;;;;4989150;28;20779;-68
2023/04/14 10:01:20;;;;;;;6.13;2.93;;;24.70;47.20;;;;;;4982534;28;20466;-68
2023/04/14 10:03:47;;;;;;;4.80;3.03;;;25.10;45.10;;;;;;4990018;28;20450;-67
2023/04/14 10:06:17;;;;;;;3.17;2.00;;;23.70;44.60;;;;;;4988828;28;20223;-67
2023/04/14 10:08:47;;;;;;;6.73;2.90;;;22.10;46.40;;;;;;4987370;28;20495;-68
2023/04/14 10:11:16;;;;;;;8.00;3.83;;;20.60;49.10;;;;;;4985566;28;20475;-68
2023/04/14 10:13:44;;;;;;;4.43;2.40;;;19.30;51.60;;;;;;4985021;28;20481;-68
2023/04/14 10:16:10;;;;;;;3.83;2.83;;;18.50;52.10;;;;;;4989338;28;20446;-68
2023/04/14 10:18:35;;;;;;;4.80;2.80;;;18.20;54.70;;;;;;4986285;28;20434;-68
2023/04/14 10:21:02;;;;;;;6.30;2.67;;;17.80;56.70;;;;;;4989514;28;20230;-68
2023/04/14 10:23:28;;;;;;;4.63;2.70;;;18.60;56.70;;;;;;4990210;28;20190;-68
2023/04/14 10:25:54;;;;;;;6.00;2.90;;;19.60;54.60;;;;;;4986470;28;20906;-69
2023/04/14 10:28:22;;;;;;;5.43;2.00;;;19.70;54.50;;;;;;4986225;28;20470;-71
2023/04/14 10:30:50;;;;;;;4.73;2.90;;;20.40;54.40;;;;;;4986923;28;20458;-70
2023/04/14 10:33:16;;;;;;;4.93;2.60;;;21.10;52.20;;;;;;4988681;28;20553;-68
2023/04/14 10:35:46;;;;;;;5.90;3.60;;;21.10;50.20;;;;;;4991933;28;21018;-69
2023/04/14 10:38:12;;;;;;;8.53;2.97;;;21.10;50.30;;;;;;4983455;28;20187;-68
2023/04/14 10:40:58;;;;;;;4.67;2.37;;;21.50;48.40;;;;;;4990476;28;20441;-69
2023/04/14 10:43:27;;;;;;;6.00;3.10;;;23.00;46.20;;;;;;4987639;28;20180;-69
2023/04/14 10:45:56;;;;;;;2.67;1.97;;;24.30;44.10;;;;;;4984581;28;20450;-70
2023/04/14 10:48:27;;;;;;;3.23;2.17;;;25.10;43.70;;;;;;4987271;28;20532;-69
2023/04/14 10:50:58;;;;;;;3.27;1.97;;;26.40;41.70;;;;;;4991792;28;20929;-69
2023/04/14 10:53:32;;;;;;;3.53;2.60;;;26.90;40.90;;;;;;4983304;28;20991;-70
2023/04/14 10:56:01;;;;;;;5.03;1.97;;;28.00;40.20;;;;;;4995827;28;20740;-70
2023/04/14 10:58:28;;;;;;;7.10;3.43;;;28.10;38.30;;;;;;4995171;28;20439;-70
2023/04/14 11:00:55;;;;;;;2.93;2.47;;;28.80;37.30;;;;;;4986005;28;20447;-69
2023/04/14 11:03:22;;;;;;;4.13;2.37;;;28.20;36.90;;;;;;4992556;28;20521;-69
2023/04/14 11:05:51;;;;;;;4.97;2.57;;;26.20;37.90;;;;;;4986433;28;20439;-69
2023/04/14 11:08:32;;;;;;;6.67;3.07;;;24.60;39.30;;;;;;4992617;28;20434;-68
2023/04/14 11:11:05;;;;;;;8.67;6.67;;;22.90;40.90;;;;;;4993169;28;20448;-68
2023/04/14 11:13:33;;;;;;;6.93;3.17;;;21.30;43.60;;;;;;4991746;28;20469;-68
2023/04/14 11:16:06;;;;;;;6.37;2.93;;;20.20;45.40;;;;;;4991318;28;20442;-68
2023/04/14 11:18:36;;;;;;;5.37;2.30;;;19.40;46.80;;;;;;4989159;28;20434;-68
2023/04/14 11:21:07;;;;;;;4.90;2.50;;;19.30;47.30;;;;;;4988955;28;20434;-68
2023/04/14 11:23:34;;;;;;;3.80;1.87;;;21.40;45.80;;;;;;4994507;28;20943;-68
2023/04/14 11:26:00;;;;;;;3.83;2.07;;;24.10;41.80;;;;;;4992879;28;20482;-68
2023/04/14 11:28:32;;;;;;;7.30;2.53;;;23.20;40.70;;;;;;4992193;28;20483;-68
2023/04/14 11:31:02;;;;;;;5.40;2.40;;;21.50;42.10;;;;;;4993041;28;20218;-68
2023/04/14 11:33:34;;;;;;;5.50;3.37;;;20.60;44.10;;;;;;4989941;28;20516;-68
2023/04/14 11:36:01;;;;;;;2.87;2.23;;;19.60;45.50;;;;;;4991815;28;20438;-68
2023/04/14 11:38:27;;;;;;;4.27;2.63;;;19.90;46.40;;;;;;4992287;28;20449;-68
2023/04/14 11:40:55;;;;;;;6.03;2.90;;;22.40;43.50;;;;;;4991831;28;22459;-68
2023/04/14 11:43:21;;;;;;;3.90;2.57;;;25.70;41.20;;;;;;4985773;28;20522;-68
2023/04/14 11:45:47;;;;;;;3.73;1.97;;;28.10;38.30;;;;;;4992254;28;20430;-68
2023/04/14 11:48:16;;;;;;;6.63;2.30;;;28.70;36.30;;;;;;4987193;28;20485;-68
2023/04/14 11:50:44;;;;;;;2.80;2.13;;;28.50;35.70;;;;;;4988281;28;20212;-68
2023/04/14 11:53:17;;;;;;;3.50;2.00;;;25.10;35.50;;;;;;4990258;28;20473;-68
2023/04/14 11:55:44;;;;;;;4.33;2.63;;;23.60;37.70;;;;;;4991516;28;20446;-68
2023/04/14 11:58:14;;;;;;;5.13;2.50;;;24.70;37.20;;;;;;4992764;28;20445;-68
2023/04/14 12:00:41;;;;;;;4.17;2.40;;;27.60;36.90;;;;;;4987904;28;20527;-68
2023/04/14 12:03:07;;;;;;;4.70;2.80;;;29.00;33.80;;;;;;4992426;28;20466;-68
2023/04/14 12:05:34;;;;;;;2.77;2.10;;;30.00;35.20;;;;;;4991347;28;20454;-68
2023/04/14 12:08:03;;;;;;;2.97;2.03;;;29.70;35.90;;;;;;4990494;28;20183;-68
2023/04/14 12:10:28;;;;;;;3.70;1.90;;;27.30;35.30;;;;;;4992904;28;20904;-68
2023/04/14 12:13:02;;;;;;;2.80;1.77;;;25.30;36.30;;;;;;4990183;28;20521;-68
2023/04/14 12:15:29;;;;;;;3.83;1.90;;;25.30;36.40;;;;;;4985920;28;20731;-68
2023/04/14 12:17:56;;;;;;;2.87;2.00;;;26.90;35.60;;;;;;4993096;28;20530;-68
2023/04/14 12:20:21;;;;;;;2.60;2.07;;;28.70;35.00;;;;;;4984318;28;20437;-68
2023/04/14 12:22:48;;;;;;;2.17;2.07;;;30.20;34.10;;;;;;4987849;28;20458;-69
2023/04/14 12:25:14;;;;;;;3.83;2.50;;;30.70;35.20;;;;;;4991906;28;20629;-69
2023/04/14 12:27:40;;;;;;;4.37;2.37;;;31.70;28.70;;;;;;4988050;28;20566;-69
2023/04/14 12:30:07;;;;;;;2.50;2.30;;;32.70;28.20;;;;;;4990754;28;20266;-69
2023/04/14 12:32:39;;;;;;;3.83;2.23;;;31.90;27.60;;;;;;4988850;28;20294;-69
2023/04/14 12:35:06;;;;;;;3.07;2.80;;;30.70;28.10;;;;;;4990598;28;20458;-69
2023/04/14 12:37:32;;;;;;;3.20;2.20;;;31.20;27.70;;;;;;4990168;28;20441;-69
2023/04/14 12:40:00;;;;;;;5.53;2.67;;;28.80;28.40;;;;;;4990903;28;20934;-68
2023/04/14 12:42:27;;;;;;;2.07;1.60;;;26.70;29.50;;;;;;4990652;28;20482;-68
2023/04/14 12:44:57;;;;;;;2.87;2.30;;;24.20;31.20;;;;;;4987631;28;20618;-68
2023/04/14 12:47:27;;;;;;;3.90;2.23;;;23.10;33.00;;;;;;4987977;28;20562;-68
2023/04/14 12:49:53;;;;;;;4.20;2.50;;;23.80;33.30;;;;;;4988042;28;20441;-68
2023/04/14 12:52:38;;;;;;;3.60;2.30;;;24.50;31.50;;;;;;4994608;28;20462;-68
2023/04/14 12:55:17;;;;;;;4.10;2.47;;;25.30;31.10;;;;;;4988367;28;20179;-68